Friday, November 24, 2017, 12:36 AM EST
Back to Local

KIJD, Willimantic Windham Airport

Location: North Windham, CT, United States Lat: 41.75
Local Time: 12:36 AM EST ( 5:36 GMT) Lon: -72.183
Time Zone: US/Eastern Elev: 246 ft

Show me the last for .
Show Coded

Time T Td Feel RH Dir Speed Gust Alt SLP Vis Weather Sky Remarks
2017-11-23 23:52 30 24 - 78 - Calm - 30.02 30.02 10 OVC100 24-hr Min Temp (12am): 28.0°F
24-hr Max Temp (12am): 44.1°F
2017-11-23 22:52 29 24 - 81 - Calm - 30.01 30.02 10 OVC100 None
2017-11-23 21:52 29 24 - 81 - Calm - 30.00 30.01 10 BKN100 None
2017-11-23 20:52 30 24 - 78 - Calm - 30.00 30.01 10 CLR None
2017-11-23 19:52 30 24 - 78 - Calm - 30.01 30.02 10 CLR None
2017-11-23 18:52 30 23 - 74 - Calm - 29.99 30.00 10 CLR 6-hr Min Temp (7pm): 30.0°F
6-hr Max Temp (7pm): 44.1°F
2017-11-23 17:52 33 23 - 66 - Calm - 30.00 30.00 10 CLR None
2017-11-23 16:52 37 22 - 53 - Calm - 29.99 29.99 10 CLR None
2017-11-23 15:52 42 18 - 37 - Calm - 29.99 29.99 10 CLR None
2017-11-23 14:52 42 19 39 39 280° 5 - 29.99 29.99 10 CLR None
2017-11-23 13:52 43 20 39 39 290° 7 - 30.00 30.00 10 CLR None
2017-11-23 12:52 41 21 36 44 240° 7 - 30.01 30.01 10 CLR 6-hr Min Temp (1pm): 28.0°F
6-hr Max Temp (1pm): 41.0°F
2017-11-23 11:52 40 20 34 44 310° 9 - 30.04 30.04 10 CLR None
2017-11-23 10:52 38 21 33 50 260° 7 - 30.06 30.06 10 CLR None
2017-11-23 09:52 37 20 32 49 350° 6 - 30.06 30.06 10 CLR None
2017-11-23 08:52 35 21 29 56 350° 8 - 30.05 30.06 10 CLR None
2017-11-23 07:52 33 21 - 60 - Calm - 30.07 30.07 10 CLR None
2017-11-23 06:52 30 21 - 68 - Calm - 30.05 30.05 10 CLR 24-hr Precip Total (7am): 0.60"
6-hr Min Temp (7am): 28.9°F
6-hr Max Temp (7am): 36.0°F
2017-11-23 05:52 32 21 27 63 320° 5 - 30.04 30.04 10 CLR None
2017-11-23 04:52 33 21 28 60 320° 6 - 30.04 30.04 10 CLR None
2017-11-23 03:52 33 21 30 60 Variable 3 - 30.03 30.03 10 CLR None
2017-11-23 02:52 34 21 27 58 320° 8 - 30.01 30.01 10 CLR None
2017-11-23 01:52 35 22 25 58 320° 10 17 30.01 30.01 10 CLR None
2017-11-23 00:52 36 24 30 61 300° 7 - 30.00 30.00 10 CLR 6-hr Min Temp (1am): 36.0°F
6-hr Max Temp (1am): 42.1°F

Support USWX by starting your Amazon purchase here.